createdAt,value
2018-07-17T00:02:58.969Z,17.60
2018-07-17T00:06:03.165Z,17.60
2018-07-17T00:09:08.820Z,17.50
2018-07-17T00:12:13.118Z,17.50
2018-07-17T00:15:17.328Z,17.40
2018-07-17T00:18:21.521Z,17.40
2018-07-17T00:21:25.748Z,17.40
2018-07-17T00:24:29.969Z,17.30
2018-07-17T00:27:34.189Z,17.30
2018-07-17T00:30:38.408Z,17.30
2018-07-17T00:33:42.657Z,17.30
2018-07-17T00:36:46.864Z,17.30
2018-07-17T00:39:51.068Z,17.20
2018-07-17T00:42:55.301Z,17.20
2018-07-17T00:45:59.513Z,17.20
2018-07-17T00:49:03.754Z,17.20
2018-07-17T00:52:08.114Z,17.20
2018-07-17T00:55:12.332Z,17.10
2018-07-17T00:58:16.562Z,17.10
2018-07-17T01:01:25.900Z,17.00
2018-07-17T01:04:35.336Z,17.10
2018-07-17T01:07:44.763Z,17.00
2018-07-17T01:10:54.356Z,16.90
2018-07-17T01:14:06.373Z,17.00
2018-07-17T01:17:10.724Z,16.90
2018-07-17T01:20:14.920Z,16.90
2018-07-17T01:23:19.119Z,16.90
2018-07-17T01:26:23.347Z,16.80
2018-07-17T01:29:27.561Z,16.80
2018-07-17T01:32:31.804Z,16.70
2018-07-17T01:35:36.001Z,16.70
2018-07-17T01:38:40.201Z,16.70
2018-07-17T01:41:44.485Z,16.60
2018-07-17T01:44:48.690Z,16.60
2018-07-17T01:47:52.948Z,16.60
2018-07-17T01:50:57.133Z,16.50
2018-07-17T01:54:01.354Z,16.50
2018-07-17T01:57:05.574Z,16.50
2018-07-17T02:00:09.794Z,16.40
2018-07-17T02:03:14.001Z,16.40
2018-07-17T02:06:18.241Z,16.30
2018-07-17T02:09:22.458Z,16.30
2018-07-17T02:12:26.683Z,16.30
2018-07-17T02:15:30.898Z,16.20
2018-07-17T02:18:35.108Z,16.20
2018-07-17T02:21:39.366Z,16.20
2018-07-17T02:24:43.580Z,16.10
2018-07-17T02:27:47.796Z,16.00
2018-07-17T02:30:52.011Z,16.00
2018-07-17T02:33:56.226Z,15.90
2018-07-17T02:37:00.436Z,15.90
2018-07-17T02:40:04.829Z,15.80
2018-07-17T02:43:09.037Z,15.80
2018-07-17T02:46:13.232Z,15.70
2018-07-17T02:49:17.457Z,15.70
2018-07-17T02:52:21.647Z,15.70
2018-07-17T02:55:25.876Z,15.70
2018-07-17T02:58:30.085Z,15.70
2018-07-17T03:01:34.302Z,15.50
2018-07-17T03:04:38.500Z,15.50
2018-07-17T03:07:42.754Z,15.50
2018-07-17T03:10:46.963Z,15.40
2018-07-17T03:13:51.161Z,15.50
2018-07-17T03:16:55.376Z,15.40
2018-07-17T03:19:59.589Z,15.40
2018-07-17T03:23:03.784Z,15.40
2018-07-17T03:26:07.989Z,15.40
2018-07-17T03:29:12.214Z,15.30
2018-07-17T03:32:16.426Z,15.30
2018-07-17T03:35:20.638Z,15.30
2018-07-17T03:38:24.867Z,15.30
2018-07-17T03:41:29.081Z,15.20
2018-07-17T03:44:33.340Z,15.20
2018-07-17T03:47:37.528Z,15.20
2018-07-17T03:50:41.737Z,15.20
2018-07-17T03:53:45.949Z,15.10
2018-07-17T03:56:50.153Z,15.10
2018-07-17T03:59:54.367Z,15.10
2018-07-17T04:02:58.609Z,15.00
2018-07-17T04:06:02.805Z,15.00
2018-07-17T04:09:08.181Z,15.10
2018-07-17T04:12:12.417Z,15.10
2018-07-17T04:15:16.617Z,15.20
2018-07-17T04:18:20.816Z,15.30
2018-07-17T04:21:25.026Z,15.30
2018-07-17T04:24:29.233Z,15.40
2018-07-17T04:27:33.448Z,15.40
2018-07-17T04:30:37.796Z,15.50
2018-07-17T04:33:42.097Z,15.60
2018-07-17T04:36:46.324Z,15.70
2018-07-17T04:39:50.537Z,15.70
2018-07-17T04:42:54.739Z,15.70
2018-07-17T04:45:58.958Z,15.80
2018-07-17T04:49:03.272Z,16.00
2018-07-17T04:52:07.489Z,16.10
2018-07-17T04:55:11.689Z,16.20
2018-07-17T04:58:15.869Z,16.40
2018-07-17T05:01:20.069Z,16.50
2018-07-17T05:04:24.256Z,16.50
2018-07-17T05:07:28.533Z,16.60
2018-07-17T05:10:32.731Z,16.70
2018-07-17T05:13:36.945Z,16.80
2018-07-17T05:16:41.151Z,17.00
2018-07-17T05:22:49.376Z,17.30
2018-07-17T05:25:53.538Z,17.40
2018-07-17T05:28:57.761Z,17.60
2018-07-17T05:32:01.945Z,17.90
2018-07-17T05:35:06.299Z,18.00
2018-07-17T05:38:10.493Z,18.20
2018-07-17T05:41:14.707Z,18.30
2018-07-17T05:44:18.928Z,18.50
2018-07-17T05:47:23.159Z,18.70
2018-07-17T05:50:27.376Z,18.80
2018-07-17T05:53:31.583Z,19.00
2018-07-17T05:56:35.777Z,19.20
2018-07-17T05:59:40.017Z,19.30
2018-07-17T06:02:44.224Z,19.50
2018-07-17T06:05:48.461Z,19.70
2018-07-17T06:08:52.681Z,19.90
2018-07-17T06:11:56.909Z,20.00
2018-07-17T06:15:01.407Z,20.20
2018-07-17T06:18:05.653Z,20.30
2018-07-17T06:21:09.915Z,20.40
2018-07-17T06:27:18.165Z,20.80
2018-07-17T06:30:22.369Z,20.90
2018-07-17T06:33:26.597Z,21.10
2018-07-17T06:36:30.817Z,21.20
2018-07-17T06:39:35.025Z,21.40
2018-07-17T06:42:39.248Z,21.60
2018-07-17T06:45:43.501Z,21.70
2018-07-17T06:48:47.727Z,21.90
2018-07-17T06:51:51.933Z,22.00
2018-07-17T06:54:56.164Z,22.20
2018-07-17T06:58:00.389Z,22.40
2018-07-17T07:01:04.605Z,22.50
2018-07-17T07:04:08.836Z,22.70
2018-07-17T07:07:13.092Z,22.90
2018-07-17T07:10:17.337Z,23.00
2018-07-17T07:13:21.553Z,23.10
2018-07-17T07:16:25.773Z,23.30
2018-07-17T07:19:29.967Z,23.40
2018-07-17T07:22:34.224Z,23.50
2018-07-17T07:25:38.472Z,23.70
2018-07-17T07:28:42.700Z,23.80
2018-07-17T07:31:46.922Z,23.90
2018-07-17T07:34:51.148Z,24.10
2018-07-17T07:37:55.394Z,24.20
2018-07-17T07:40:59.624Z,24.30
2018-07-17T07:44:04.252Z,24.50
2018-07-17T07:47:08.509Z,24.60
2018-07-17T07:50:12.749Z,24.70
2018-07-17T07:53:16.976Z,24.80
2018-07-17T07:56:21.205Z,25.00
2018-07-17T07:59:25.417Z,25.10
2018-07-17T08:02:29.665Z,25.20
2018-07-17T08:05:33.862Z,25.30
2018-07-17T08:08:38.064Z,25.40
2018-07-17T08:11:42.333Z,25.60
2018-07-17T08:14:46.518Z,25.70
2018-07-17T08:17:50.745Z,25.90
2018-07-17T08:20:54.970Z,26.00
2018-07-17T08:23:59.205Z,26.00
2018-07-17T08:27:03.421Z,26.10
2018-07-17T08:30:07.625Z,26.30
2018-07-17T08:33:11.873Z,26.20
2018-07-17T08:36:16.077Z,26.30
2018-07-17T08:39:20.323Z,26.40
2018-07-17T08:42:24.549Z,26.50
2018-07-17T08:45:28.800Z,26.60
2018-07-17T08:48:33.028Z,26.70
2018-07-17T08:51:37.245Z,26.80
2018-07-17T08:54:41.569Z,26.90
2018-07-17T08:57:45.656Z,26.90
2018-07-17T09:00:49.937Z,26.90
2018-07-17T09:03:54.130Z,26.90
2018-07-17T09:06:58.321Z,27.00
2018-07-17T09:10:02.562Z,27.00
2018-07-17T09:13:06.801Z,27.10
2018-07-17T09:16:10.992Z,27.20
2018-07-17T09:19:15.242Z,27.50
2018-07-17T09:22:19.441Z,27.60
2018-07-17T09:25:23.678Z,27.70
2018-07-17T09:28:27.885Z,27.70
2018-07-17T09:31:32.117Z,27.80
2018-07-17T09:34:36.326Z,27.80
2018-07-17T09:37:40.521Z,27.70
2018-07-17T09:40:44.720Z,27.90
2018-07-17T09:43:48.959Z,28.00
2018-07-17T09:46:53.184Z,28.00
2018-07-17T09:49:57.408Z,28.00
2018-07-17T09:53:01.606Z,28.10
2018-07-17T09:56:05.918Z,28.20
2018-07-17T09:59:10.097Z,28.10
2018-07-17T10:02:19.687Z,28.10
2018-07-17T10:05:23.884Z,28.10
2018-07-17T10:08:28.105Z,28.20
2018-07-17T10:11:32.311Z,28.20
2018-07-17T10:14:37.766Z,28.20
2018-07-17T10:17:41.963Z,28.30
2018-07-17T10:20:46.225Z,28.30
2018-07-17T10:23:50.449Z,28.30
2018-07-17T10:26:54.680Z,28.40
2018-07-17T10:29:58.900Z,28.50
2018-07-17T10:33:03.121Z,28.40
2018-07-17T10:36:07.441Z,28.50
2018-07-17T10:39:12.040Z,28.70
2018-07-17T10:42:16.257Z,28.70
2018-07-17T10:45:20.477Z,28.90
2018-07-17T10:48:24.680Z,28.90
2018-07-17T10:51:28.921Z,28.90
2018-07-17T10:54:33.144Z,28.80
2018-07-17T10:57:37.381Z,28.60
2018-07-17T11:00:41.630Z,28.40
2018-07-17T11:03:45.868Z,28.40
2018-07-17T11:06:50.133Z,28.50
2018-07-17T11:09:54.374Z,28.70
2018-07-17T11:12:58.685Z,28.80
2018-07-17T11:19:07.167Z,28.70
2018-07-17T11:22:11.388Z,28.50
2018-07-17T11:25:15.608Z,28.40
2018-07-17T11:28:19.813Z,28.60
2018-07-17T11:31:24.032Z,28.80
2018-07-17T11:34:28.236Z,28.90
2018-07-17T11:37:32.468Z,29.00
2018-07-17T11:40:36.684Z,29.00
2018-07-17T11:43:41.064Z,29.20
2018-07-17T11:46:45.329Z,29.30
2018-07-17T11:49:49.557Z,29.40
2018-07-17T11:52:53.821Z,29.60
2018-07-17T11:55:58.053Z,29.60
2018-07-17T11:59:02.455Z,29.70
2018-07-17T12:02:06.726Z,29.70
2018-07-17T12:05:10.989Z,29.60
2018-07-17T12:08:15.187Z,29.50
2018-07-17T12:11:19.460Z,29.50
2018-07-17T12:14:23.837Z,29.40
2018-07-17T12:17:28.105Z,29.70
2018-07-17T12:20:32.481Z,29.90
2018-07-17T12:23:36.561Z,29.90
2018-07-17T12:26:40.789Z,29.80
2018-07-17T12:29:44.993Z,29.60
2018-07-17T12:32:49.184Z,29.30
2018-07-17T12:35:53.392Z,29.40
2018-07-17T12:38:57.611Z,29.40
2018-07-17T12:42:01.841Z,29.20
2018-07-17T12:45:06.086Z,29.10
2018-07-17T12:48:13.084Z,29.20
2018-07-17T12:51:17.308Z,29.30
2018-07-17T12:54:21.505Z,29.50
2018-07-17T12:57:25.757Z,29.70
2018-07-17T13:00:29.968Z,29.70
2018-07-17T13:03:34.465Z,29.60
2018-07-17T13:06:38.876Z,29.50
2018-07-17T13:09:43.212Z,29.50
2018-07-17T13:12:47.445Z,29.50
2018-07-17T13:15:51.677Z,29.50
2018-07-17T13:18:55.913Z,29.80
2018-07-17T13:22:00.137Z,29.90
2018-07-17T13:25:04.902Z,30.10
2018-07-17T13:28:09.144Z,30.20
2018-07-17T13:31:13.446Z,30.00
2018-07-17T13:34:17.653Z,30.10
2018-07-17T13:37:21.877Z,30.20
2018-07-17T13:40:26.099Z,30.20
2018-07-17T13:43:30.340Z,30.20
2018-07-17T13:46:34.550Z,30.20
2018-07-17T13:49:38.771Z,30.20
2018-07-17T13:52:43.013Z,30.20
2018-07-17T13:55:47.249Z,30.20
2018-07-17T13:58:51.599Z,30.20
2018-07-17T14:01:55.854Z,30.20
2018-07-17T14:05:00.069Z,30.20
2018-07-17T14:08:04.300Z,30.10
2018-07-17T14:11:08.562Z,30.00
2018-07-17T14:14:12.769Z,30.00
2018-07-17T14:20:21.030Z,30.30
2018-07-17T14:23:25.244Z,30.30
2018-07-17T14:26:29.458Z,30.20
2018-07-17T14:29:33.656Z,30.20
2018-07-17T14:32:37.859Z,30.30
2018-07-17T14:35:42.120Z,30.30
2018-07-17T14:38:46.330Z,30.20
2018-07-17T14:41:50.602Z,30.20
2018-07-17T14:44:54.830Z,30.20
2018-07-17T14:47:59.059Z,30.20
2018-07-17T14:54:07.325Z,30.70
2018-07-17T14:57:11.575Z,30.80
2018-07-17T15:00:16.248Z,30.70
2018-07-17T15:03:20.494Z,30.30
2018-07-17T15:06:24.694Z,30.40
2018-07-17T15:09:28.912Z,30.60
2018-07-17T15:12:33.126Z,30.50
2018-07-17T15:15:37.393Z,30.60
2018-07-17T15:18:41.560Z,30.80
2018-07-17T15:21:45.781Z,31.00
2018-07-17T15:24:50.013Z,31.10
2018-07-17T15:27:54.507Z,31.20
2018-07-17T15:30:58.807Z,31.20
2018-07-17T15:34:03.114Z,31.20
2018-07-17T15:37:07.337Z,31.00
2018-07-17T15:40:11.562Z,31.30
2018-07-17T15:43:15.788Z,31.50
2018-07-17T15:46:20.027Z,31.60
2018-07-17T15:49:24.229Z,31.80
2018-07-17T15:52:28.482Z,31.70
2018-07-17T15:55:32.693Z,31.60
2018-07-17T15:58:36.938Z,31.40
2018-07-17T16:01:41.176Z,31.30
2018-07-17T16:04:45.405Z,31.40
2018-07-17T16:07:50.905Z,31.50
2018-07-17T16:10:55.120Z,31.50
2018-07-17T16:13:59.645Z,31.40
2018-07-17T16:17:03.581Z,31.20
2018-07-17T16:20:08.322Z,31.20
2018-07-17T16:23:12.564Z,31.00
2018-07-17T16:26:16.822Z,30.90
2018-07-17T16:29:21.676Z,30.60
2018-07-17T16:32:25.924Z,30.30
2018-07-17T16:35:30.645Z,29.90
2018-07-17T16:38:34.875Z,29.70
2018-07-17T16:41:39.104Z,29.60
2018-07-17T16:44:43.404Z,29.30
2018-07-17T16:47:47.664Z,29.10
2018-07-17T16:50:52.021Z,29.00
2018-07-17T16:53:57.047Z,28.90
2018-07-17T16:57:01.283Z,28.70
2018-07-17T17:00:05.817Z,28.60
2018-07-17T17:03:10.248Z,28.50
2018-07-17T17:06:14.480Z,28.40
2018-07-17T17:09:18.794Z,28.30
2018-07-17T17:12:23.012Z,28.20
2018-07-17T17:15:27.259Z,28.10
2018-07-17T17:18:31.461Z,28.10
2018-07-17T17:21:35.696Z,28.10
2018-07-17T17:24:39.961Z,28.00
2018-07-17T17:27:44.162Z,27.90
2018-07-17T17:30:48.361Z,27.90
2018-07-17T17:33:52.565Z,27.90
2018-07-17T17:36:56.791Z,27.80
2018-07-17T17:40:00.997Z,27.70
2018-07-17T17:43:05.548Z,27.50
2018-07-17T17:46:09.781Z,27.40
2018-07-17T17:49:14.010Z,27.30
2018-07-17T17:52:18.238Z,27.20
2018-07-17T17:55:22.445Z,27.20
2018-07-17T17:58:26.641Z,27.10
2018-07-17T18:01:30.881Z,27.00
2018-07-17T18:04:35.089Z,26.90
2018-07-17T18:07:39.326Z,26.80
2018-07-17T18:10:43.552Z,26.70
2018-07-17T18:13:47.760Z,26.60
2018-07-17T18:16:51.969Z,26.50
2018-07-17T18:19:56.170Z,26.40
2018-07-17T18:23:00.389Z,26.40
2018-07-17T18:26:04.577Z,26.30
2018-07-17T18:29:08.822Z,26.30
2018-07-17T18:32:13.373Z,26.20
2018-07-17T18:35:17.565Z,26.20
2018-07-17T18:38:21.800Z,26.10
2018-07-17T18:41:26.015Z,26.00
2018-07-17T18:44:30.268Z,25.80
2018-07-17T18:47:34.513Z,25.70
2018-07-17T18:50:38.753Z,25.70
2018-07-17T18:53:43.010Z,25.50
2018-07-17T18:56:47.247Z,25.40
2018-07-17T18:59:51.461Z,25.30
2018-07-17T19:09:04.069Z,25.10
2018-07-17T19:12:08.274Z,24.90
2018-07-17T19:15:12.481Z,24.80
2018-07-17T19:18:16.767Z,24.50
2018-07-17T19:21:20.982Z,24.20
2018-07-17T19:24:25.236Z,24.00
2018-07-17T19:27:29.380Z,23.80
2018-07-17T19:30:33.633Z,23.60
2018-07-17T19:33:37.861Z,23.40
2018-07-17T19:36:42.107Z,23.20
2018-07-17T19:39:46.329Z,22.90
2018-07-17T19:42:50.541Z,22.80
2018-07-17T19:45:54.764Z,22.70
2018-07-17T19:48:59.072Z,22.60
2018-07-17T19:52:03.293Z,22.50
2018-07-17T19:55:07.565Z,22.40
2018-07-17T19:58:11.772Z,22.20
2018-07-17T20:01:15.981Z,22.10
2018-07-17T20:04:20.191Z,22.00
2018-07-17T20:07:24.400Z,21.90
2018-07-17T20:10:28.605Z,21.80
2018-07-17T20:13:32.830Z,21.70
2018-07-17T20:16:37.036Z,21.60
2018-07-17T20:19:41.333Z,21.50
2018-07-17T20:22:45.529Z,21.40
2018-07-17T20:25:49.736Z,21.30
2018-07-17T20:28:53.929Z,21.20
2018-07-17T20:31:58.161Z,21.10
2018-07-17T20:35:02.364Z,21.10
2018-07-17T20:38:06.564Z,21.00
2018-07-17T20:41:10.839Z,20.90
2018-07-17T20:44:15.014Z,20.80
2018-07-17T20:47:19.224Z,20.70
2018-07-17T20:50:23.468Z,20.60
2018-07-17T20:53:27.672Z,20.50
2018-07-17T20:56:31.886Z,20.40
2018-07-17T20:59:36.089Z,20.40
2018-07-17T21:02:40.292Z,20.30
2018-07-17T21:05:44.500Z,20.20
2018-07-17T21:11:52.709Z,20.10
2018-07-17T21:14:56.938Z,20.10
2018-07-17T21:21:05.132Z,20.00
2018-07-17T21:24:09.345Z,19.90
2018-07-17T21:27:13.578Z,19.80
2018-07-17T21:30:17.837Z,19.70
2018-07-17T21:33:22.053Z,19.60
2018-07-17T21:36:26.298Z,19.60
2018-07-17T21:39:30.517Z,19.50
2018-07-17T21:42:34.733Z,19.30
2018-07-17T21:45:38.937Z,19.20
2018-07-17T21:48:43.189Z,19.20
2018-07-17T21:51:47.405Z,19.20
2018-07-17T21:54:51.620Z,19.10
2018-07-17T21:57:55.840Z,19.00
2018-07-17T22:01:00.050Z,19.00
2018-07-17T22:04:04.326Z,19.00
2018-07-17T22:07:08.532Z,18.90
2018-07-17T22:10:12.777Z,19.00
2018-07-17T22:13:16.986Z,18.90
2018-07-17T22:16:21.277Z,18.90
2018-07-17T22:19:25.520Z,18.80
2018-07-17T22:22:29.763Z,18.80
2018-07-17T22:25:34.025Z,18.80
2018-07-17T22:28:38.254Z,18.70
2018-07-17T22:31:42.472Z,18.60
2018-07-17T22:37:50.741Z,18.60
2018-07-17T22:40:54.993Z,18.50
2018-07-17T22:43:59.235Z,18.50
2018-07-17T22:47:03.472Z,18.30
2018-07-17T22:50:07.751Z,18.30
2018-07-17T22:53:12.008Z,18.30
2018-07-17T22:56:16.261Z,18.30
2018-07-17T22:59:20.493Z,18.20
2018-07-17T23:02:24.742Z,18.10
2018-07-17T23:05:28.969Z,18.10
2018-07-17T23:08:33.237Z,18.00
2018-07-17T23:11:38.064Z,18.00
2018-07-17T23:14:42.357Z,18.00
2018-07-17T23:17:46.570Z,18.00
2018-07-17T23:20:50.804Z,18.00
2018-07-17T23:23:55.777Z,17.90
2018-07-17T23:27:00.015Z,17.90
2018-07-17T23:30:04.229Z,18.00
2018-07-17T23:33:08.444Z,18.00
2018-07-17T23:36:12.620Z,18.00
2018-07-17T23:39:16.841Z,18.00
2018-07-17T23:42:21.020Z,17.90
2018-07-17T23:45:25.233Z,17.90
2018-07-17T23:48:29.411Z,18.00
2018-07-17T23:51:33.617Z,18.00
2018-07-17T23:54:37.847Z,18.00
2018-07-17T23:57:42.050Z,18.00
